createdAt,value
2023-02-07T00:01:15.413Z,23.92
2023-02-07T00:03:45.624Z,23.81
2023-02-07T00:06:14.746Z,23.80
2023-02-07T00:08:43.684Z,23.81
2023-02-07T00:11:16.341Z,23.83
2023-02-07T00:13:45.149Z,23.71
2023-02-07T00:16:14.243Z,23.87
2023-02-07T00:18:45.265Z,23.84
2023-02-07T00:21:14.682Z,23.76
2023-02-07T00:23:43.461Z,23.86
2023-02-07T00:26:12.474Z,23.83
2023-02-07T00:28:41.531Z,23.74
2023-02-07T00:31:11.213Z,23.76
2023-02-07T00:33:40.653Z,23.61
2023-02-07T00:36:11.378Z,23.81
2023-02-07T00:38:40.054Z,23.68
2023-02-07T00:41:09.132Z,23.70
2023-02-07T00:43:38.329Z,23.68
2023-02-07T00:46:07.358Z,23.70
2023-02-07T00:48:36.312Z,23.77
2023-02-07T00:51:05.462Z,23.78
2023-02-07T00:53:36.052Z,23.86
2023-02-07T00:56:05.001Z,23.87
2023-02-07T00:58:33.871Z,23.74
2023-02-07T01:01:03.002Z,23.91
2023-02-07T01:03:30.967Z,23.70
2023-02-07T01:06:02.116Z,23.69
2023-02-07T01:08:31.013Z,23.74
2023-02-07T01:11:02.675Z,23.72
2023-02-07T01:13:31.557Z,23.86
2023-02-07T01:16:00.692Z,23.63
2023-02-07T01:18:30.138Z,23.75
2023-02-07T01:20:59.050Z,23.88
2023-02-07T01:23:28.248Z,23.87
2023-02-07T01:25:57.228Z,23.88
2023-02-07T01:28:28.762Z,23.99
2023-02-07T01:30:57.529Z,23.95
2023-02-07T01:33:26.680Z,23.94
2023-02-07T01:35:57.997Z,23.77
2023-02-07T01:38:26.761Z,24.07
2023-02-07T01:40:57.652Z,23.96
2023-02-07T01:43:31.072Z,23.76
2023-02-07T01:46:00.124Z,24.06
2023-02-07T01:48:30.348Z,24.06
2023-02-07T01:51:00.481Z,24.00
2023-02-07T01:53:29.271Z,23.99
2023-02-07T01:55:58.681Z,23.95
2023-02-07T01:58:28.890Z,23.82
2023-02-07T02:00:58.013Z,23.86
2023-02-07T02:03:26.338Z,24.00
2023-02-07T02:05:55.461Z,24.04
2023-02-07T02:08:24.402Z,23.97
2023-02-07T02:11:00.800Z,23.88
2023-02-07T02:13:31.721Z,23.86
2023-02-07T02:16:05.814Z,23.66
2023-02-07T02:18:37.359Z,23.95
2023-02-07T02:21:24.917Z,23.70
2023-02-07T02:24:11.252Z,23.72
2023-02-07T02:26:51.109Z,23.92
2023-02-07T02:29:51.920Z,23.79
2023-02-07T02:32:38.130Z,23.88
2023-02-07T02:35:09.234Z,24.07
2023-02-07T02:37:37.500Z,24.03
2023-02-07T02:40:07.719Z,23.94
2023-02-07T02:42:38.650Z,24.03
2023-02-07T02:45:09.438Z,23.97
2023-02-07T02:47:37.295Z,24.17
2023-02-07T02:50:06.598Z,23.76
2023-02-07T02:52:49.908Z,24.13
2023-02-07T02:55:20.108Z,24.00
2023-02-07T02:57:52.733Z,23.86
2023-02-07T03:00:33.597Z,23.86
2023-02-07T03:03:10.308Z,23.83
2023-02-07T03:05:40.587Z,24.02
2023-02-07T03:08:13.788Z,23.77
2023-02-07T03:10:45.302Z,24.09
2023-02-07T03:13:15.416Z,23.78
2023-02-07T03:15:48.424Z,23.82
2023-02-07T03:18:16.767Z,23.74
2023-02-07T03:20:46.952Z,23.75
2023-02-07T03:23:17.005Z,23.69
2023-02-07T03:25:45.909Z,23.61
2023-02-07T03:28:14.966Z,23.76
2023-02-07T03:30:44.177Z,23.70
2023-02-07T03:33:13.296Z,23.74
2023-02-07T03:35:42.901Z,23.92
2023-02-07T03:38:12.343Z,23.99
2023-02-07T03:40:44.101Z,23.74
2023-02-07T03:43:14.364Z,24.22
2023-02-07T03:45:43.316Z,23.68
2023-02-07T03:48:12.189Z,23.72
2023-02-07T03:50:41.152Z,24.00
2023-02-07T03:53:10.227Z,23.99
2023-02-07T03:55:39.158Z,24.04
2023-02-07T03:58:09.807Z,23.96
2023-02-07T04:00:38.587Z,23.82
2023-02-07T04:03:07.652Z,23.80
2023-02-07T04:05:37.323Z,23.89
2023-02-07T04:08:06.447Z,24.03
2023-02-07T04:10:35.541Z,23.96
2023-02-07T04:13:04.315Z,23.87
2023-02-07T04:15:34.786Z,23.91
2023-02-07T04:18:03.889Z,23.92
2023-02-07T04:20:32.655Z,24.00
2023-02-07T04:23:01.490Z,23.90
2023-02-07T04:25:30.268Z,23.92
2023-02-07T04:27:59.332Z,23.81
2023-02-07T04:30:28.077Z,23.85
2023-02-07T04:32:58.599Z,23.79
2023-02-07T04:35:27.522Z,23.84
2023-02-07T04:37:56.411Z,23.69
2023-02-07T04:40:25.463Z,23.83
2023-02-07T04:42:54.656Z,23.68
2023-02-07T04:45:23.708Z,23.98
2023-02-07T04:47:52.689Z,23.89
2023-02-07T04:50:23.050Z,23.84
2023-02-07T04:52:52.075Z,23.59
2023-02-07T04:55:22.738Z,23.91
2023-02-07T04:57:51.518Z,23.90
2023-02-07T05:00:19.557Z,23.82
2023-02-07T05:02:48.390Z,23.85
2023-02-07T05:05:16.826Z,23.70
2023-02-07T05:07:47.182Z,24.03
2023-02-07T05:10:17.192Z,23.78
2023-02-07T05:12:46.448Z,24.04
2023-02-07T05:15:15.476Z,23.90
2023-02-07T05:17:47.379Z,23.75
2023-02-07T05:20:16.408Z,24.06
2023-02-07T05:22:46.106Z,23.97
2023-02-07T05:25:19.752Z,23.97
2023-02-07T05:27:48.997Z,23.56
2023-02-07T05:30:18.119Z,23.79
2023-02-07T05:33:06.530Z,23.59
2023-02-07T05:35:36.213Z,23.89
2023-02-07T05:38:06.477Z,23.78
2023-02-07T05:40:45.788Z,23.61
2023-02-07T05:43:14.629Z,23.63
2023-02-07T05:45:42.293Z,23.54
2023-02-07T05:48:10.976Z,23.54
2023-02-07T05:50:39.639Z,23.67
2023-02-07T05:53:08.850Z,23.65
2023-02-07T05:55:39.822Z,23.63
2023-02-07T05:58:07.728Z,23.76
2023-02-07T06:00:37.761Z,23.63
2023-02-07T06:03:05.627Z,23.58
2023-02-07T06:05:33.928Z,23.63
2023-02-07T06:08:02.947Z,23.62
2023-02-07T06:10:33.160Z,23.67
2023-02-07T06:13:03.384Z,23.51
2023-02-07T06:15:32.724Z,23.54
2023-02-07T06:18:01.555Z,23.53
2023-02-07T06:20:30.744Z,23.51
2023-02-07T06:23:00.704Z,23.49
2023-02-07T06:25:29.561Z,23.53
2023-02-07T06:28:01.323Z,23.48
2023-02-07T06:30:31.719Z,23.51
2023-02-07T06:33:04.884Z,23.55
2023-02-07T06:35:33.706Z,23.30
2023-02-07T06:38:04.489Z,23.39
2023-02-07T06:40:33.265Z,23.43
2023-02-07T06:43:02.465Z,23.19
2023-02-07T06:45:37.424Z,23.36
2023-02-07T06:48:07.095Z,23.30
2023-02-07T06:50:36.195Z,23.47
2023-02-07T06:53:03.845Z,23.54
2023-02-07T06:55:31.515Z,23.56
2023-02-07T06:57:59.260Z,23.65
2023-02-07T07:00:26.931Z,23.63
2023-02-07T07:02:56.050Z,23.42
2023-02-07T07:05:23.763Z,23.46
2023-02-07T07:07:52.097Z,23.33
2023-02-07T07:10:19.977Z,23.63
2023-02-07T07:12:47.752Z,23.31
2023-02-07T07:15:15.616Z,23.27
2023-02-07T07:17:43.774Z,23.72
2023-02-07T07:20:13.159Z,23.47
2023-02-07T07:22:40.979Z,23.51
2023-02-07T07:25:08.824Z,23.44
2023-02-07T07:27:36.509Z,23.48
2023-02-07T07:30:04.994Z,23.24
2023-02-07T07:32:34.450Z,23.62
2023-02-07T07:35:02.579Z,23.32
2023-02-07T07:37:31.703Z,23.30
2023-02-07T07:39:59.441Z,23.32
2023-02-07T07:42:27.222Z,23.17
2023-02-07T07:44:54.987Z,23.27
2023-02-07T07:47:22.681Z,23.66
2023-02-07T07:49:51.160Z,23.59
2023-02-07T07:52:20.040Z,24.00
2023-02-07T07:54:49.092Z,23.69
2023-02-07T07:57:18.190Z,23.94
2023-02-07T07:59:47.073Z,23.96
2023-02-07T08:02:16.798Z,23.91
2023-02-07T08:04:44.740Z,23.93
2023-02-07T08:07:12.495Z,23.71
2023-02-07T08:09:40.412Z,23.74
2023-02-07T08:12:09.617Z,23.99
2023-02-07T08:14:37.465Z,23.81
2023-02-07T08:17:05.209Z,23.95
2023-02-07T08:19:33.328Z,23.91
2023-02-07T08:22:01.026Z,23.99
2023-02-07T08:24:28.942Z,23.90
2023-02-07T08:26:56.657Z,23.99
2023-02-07T08:29:26.182Z,24.01
2023-02-07T08:31:53.982Z,24.19
2023-02-07T08:34:24.934Z,24.19
2023-02-07T08:36:53.088Z,24.19
2023-02-07T08:39:21.461Z,24.06
2023-02-07T08:41:49.186Z,24.22
2023-02-07T08:44:17.361Z,24.24
2023-02-07T08:46:46.434Z,24.23
2023-02-07T08:49:15.279Z,24.06
2023-02-07T08:51:42.948Z,24.00
2023-02-07T08:54:11.374Z,23.96
2023-02-07T08:56:39.085Z,24.00
2023-02-07T08:59:06.708Z,24.22
2023-02-07T09:01:35.120Z,24.40
2023-02-07T09:04:05.080Z,24.38
2023-02-07T09:06:33.510Z,24.66
2023-02-07T09:09:01.190Z,24.54
2023-02-07T09:11:29.726Z,24.60
2023-02-07T09:13:57.472Z,24.26
2023-02-07T09:16:26.004Z,24.50
2023-02-07T09:18:53.689Z,24.58
2023-02-07T09:21:23.486Z,24.51
2023-02-07T09:23:51.167Z,24.32
2023-02-07T09:26:19.990Z,24.76
2023-02-07T09:28:47.715Z,25.45
2023-02-07T09:31:16.363Z,25.48
2023-02-07T09:33:44.161Z,25.67
2023-02-07T09:36:24.110Z,25.34
2023-02-07T09:38:51.769Z,25.39
2023-02-07T09:41:22.024Z,25.68
2023-02-07T09:43:54.932Z,25.56
2023-02-07T09:46:24.326Z,25.35
2023-02-07T09:48:52.381Z,25.53
2023-02-07T09:51:21.392Z,25.45
2023-02-07T09:53:51.183Z,25.30
2023-02-07T09:56:21.845Z,25.34
2023-02-07T09:58:53.338Z,25.07
2023-02-07T10:01:22.376Z,25.17
2023-02-07T10:03:53.751Z,24.87
2023-02-07T10:06:24.235Z,26.37
2023-02-07T10:08:53.518Z,25.89
2023-02-07T10:11:22.642Z,26.31
2023-02-07T10:13:57.765Z,25.82
2023-02-07T10:16:30.082Z,25.53
2023-02-07T10:19:00.413Z,25.66
2023-02-07T10:21:29.986Z,25.61
2023-02-07T10:24:03.630Z,25.05
2023-02-07T10:26:33.682Z,25.16
2023-02-07T10:29:08.131Z,24.89
2023-02-07T10:31:36.612Z,24.96
2023-02-07T10:34:04.951Z,24.87
2023-02-07T10:36:34.586Z,24.89
2023-02-07T10:39:09.408Z,24.61
2023-02-07T10:41:39.170Z,24.60
2023-02-07T10:44:07.616Z,24.55
2023-02-07T10:46:36.166Z,24.56
2023-02-07T10:49:03.890Z,24.59
2023-02-07T10:51:33.821Z,24.42
2023-02-07T10:54:09.675Z,24.09
2023-02-07T10:56:41.380Z,24.01
2023-02-07T10:59:24.807Z,24.18
2023-02-07T11:01:55.064Z,23.96
2023-02-07T11:04:26.430Z,24.19
2023-02-07T11:06:59.207Z,23.98
2023-02-07T11:09:28.253Z,24.00
2023-02-07T11:11:56.018Z,23.91
2023-02-07T11:14:27.969Z,23.80
2023-02-07T11:16:55.923Z,23.95
2023-02-07T11:19:25.173Z,23.95
2023-02-07T11:21:53.197Z,23.96
2023-02-07T11:24:24.368Z,23.89
2023-02-07T11:26:55.808Z,24.11
2023-02-07T11:29:24.337Z,23.92
2023-02-07T11:31:52.218Z,24.03
2023-02-07T11:34:29.574Z,23.92
2023-02-07T11:36:58.077Z,24.04
2023-02-07T11:39:25.742Z,24.04
2023-02-07T11:42:00.986Z,23.86
2023-02-07T11:44:30.690Z,23.91
2023-02-07T11:46:59.550Z,23.94
2023-02-07T11:49:27.616Z,24.18
2023-02-07T11:51:56.501Z,24.16
2023-02-07T11:54:24.187Z,24.12
2023-02-07T11:56:54.295Z,23.91
2023-02-07T11:59:23.821Z,23.81
2023-02-07T12:01:52.313Z,24.01
2023-02-07T12:04:21.351Z,23.72
2023-02-07T12:06:51.058Z,23.96
2023-02-07T12:09:23.713Z,24.34
2023-02-07T12:11:51.401Z,24.24
2023-02-07T12:14:21.458Z,24.02
2023-02-07T12:16:51.173Z,24.30
2023-02-07T12:19:20.674Z,23.98
2023-02-07T12:21:52.512Z,24.32
2023-02-07T12:24:22.972Z,24.65
2023-02-07T12:26:51.943Z,24.61
2023-02-07T12:29:23.678Z,24.63
2023-02-07T12:31:57.928Z,24.68
2023-02-07T12:34:29.237Z,24.82
2023-02-07T12:36:57.439Z,24.44
2023-02-07T12:39:26.520Z,24.53
2023-02-07T12:41:55.142Z,24.69
2023-02-07T12:44:24.479Z,24.57
2023-02-07T12:46:55.773Z,24.90
2023-02-07T12:49:31.252Z,25.04
2023-02-07T12:52:00.594Z,24.96
2023-02-07T12:54:32.688Z,25.28
2023-02-07T12:57:02.090Z,25.58
2023-02-07T12:59:32.062Z,25.76
2023-02-07T13:02:04.825Z,25.88
2023-02-07T13:04:49.029Z,25.63
2023-02-07T13:07:20.500Z,26.09
2023-02-07T13:09:50.175Z,25.93
2023-02-07T13:12:19.482Z,26.04
2023-02-07T13:14:53.458Z,26.44
2023-02-07T13:17:40.032Z,26.39
2023-02-07T13:20:11.160Z,26.55
2023-02-07T13:22:50.742Z,26.38
2023-02-07T13:25:20.355Z,27.46
2023-02-07T13:27:49.931Z,26.99
2023-02-07T13:30:17.705Z,26.75
2023-02-07T13:32:47.127Z,26.64
2023-02-07T13:35:17.345Z,27.19
2023-02-07T13:37:47.135Z,26.98
2023-02-07T13:40:20.905Z,26.71
2023-02-07T13:42:51.197Z,26.04
2023-02-07T13:45:19.829Z,26.09
2023-02-07T13:47:54.592Z,26.05
2023-02-07T13:50:29.068Z,26.33
2023-02-07T13:52:59.521Z,26.35
2023-02-07T13:55:28.503Z,26.12
2023-02-07T13:58:15.433Z,26.53
2023-02-07T14:00:58.018Z,26.25
2023-02-07T14:03:30.658Z,26.14
2023-02-07T14:06:14.478Z,26.28
2023-02-07T14:08:44.307Z,26.08
2023-02-07T14:11:23.246Z,26.10
2023-02-07T14:13:51.679Z,25.76
2023-02-07T14:16:19.338Z,25.72
2023-02-07T14:18:50.448Z,25.83
2023-02-07T14:21:37.195Z,25.75
2023-02-07T14:24:19.722Z,25.80
2023-02-07T14:26:53.961Z,25.50
2023-02-07T14:29:51.813Z,25.73
2023-02-07T14:32:32.203Z,25.67
2023-02-07T14:35:00.648Z,25.50
2023-02-07T14:37:38.469Z,25.39
2023-02-07T14:40:09.992Z,25.37
2023-02-07T14:42:39.886Z,25.32
2023-02-07T14:45:07.845Z,25.58
2023-02-07T14:47:37.835Z,25.29
2023-02-07T14:50:05.892Z,25.25
2023-02-07T14:52:34.866Z,25.15
2023-02-07T14:55:02.848Z,25.15
2023-02-07T14:57:35.366Z,25.21
2023-02-07T15:00:05.216Z,25.24
2023-02-07T15:02:34.166Z,25.46
2023-02-07T15:05:15.695Z,25.31
2023-02-07T15:07:44.093Z,25.41
2023-02-07T15:10:17.240Z,25.90
2023-02-07T15:12:46.258Z,25.68
2023-02-07T15:15:20.843Z,26.14
2023-02-07T15:17:49.592Z,25.89
2023-02-07T15:20:17.343Z,26.27
2023-02-07T15:22:48.373Z,26.38
2023-02-07T15:25:16.145Z,27.02
2023-02-07T15:27:43.827Z,27.25
2023-02-07T15:30:16.899Z,27.91
2023-02-07T15:32:47.498Z,27.46
2023-02-07T15:35:19.334Z,28.66
2023-02-07T15:37:47.594Z,28.71
2023-02-07T15:40:16.857Z,28.84
2023-02-07T15:42:54.249Z,29.11
2023-02-07T15:45:25.645Z,29.15
2023-02-07T15:48:03.283Z,29.30
2023-02-07T15:50:31.309Z,29.62
2023-02-07T15:53:00.354Z,29.59
2023-02-07T15:55:31.020Z,30.13
2023-02-07T15:57:59.551Z,29.58
2023-02-07T16:00:28.176Z,29.51
2023-02-07T16:02:59.414Z,29.71
2023-02-07T16:05:29.928Z,29.31
2023-02-07T16:07:57.717Z,29.45
2023-02-07T16:10:33.927Z,28.97
2023-02-07T16:13:01.721Z,29.00
2023-02-07T16:15:34.386Z,28.82
2023-02-07T16:18:02.185Z,28.72
2023-02-07T16:20:31.498Z,28.31
2023-02-07T16:23:00.787Z,28.46
2023-02-07T16:25:29.054Z,27.78
2023-02-07T16:27:56.830Z,27.94
2023-02-07T16:30:26.202Z,28.67
2023-02-07T16:32:53.944Z,28.48
2023-02-07T16:35:24.469Z,28.71
2023-02-07T16:37:53.593Z,28.76
2023-02-07T16:40:23.453Z,28.39
2023-02-07T16:42:51.073Z,28.28
2023-02-07T16:45:19.568Z,28.12
2023-02-07T16:47:49.406Z,28.02
2023-02-07T16:50:18.651Z,27.76
2023-02-07T16:52:46.651Z,27.59
2023-02-07T16:55:18.463Z,27.62
2023-02-07T16:57:46.244Z,27.31
2023-02-07T17:00:16.476Z,27.33
2023-02-07T17:02:44.454Z,27.56
2023-02-07T17:05:14.588Z,27.40
2023-02-07T17:07:42.353Z,27.59
2023-02-07T17:10:14.347Z,27.36
2023-02-07T17:12:43.613Z,27.24
2023-02-07T17:15:11.996Z,27.16
2023-02-07T17:17:41.477Z,27.03
2023-02-07T17:20:13.731Z,27.04
2023-02-07T17:22:42.437Z,26.91
2023-02-07T17:25:10.134Z,26.99
2023-02-07T17:27:37.812Z,26.69
2023-02-07T17:30:08.860Z,26.66
2023-02-07T17:32:36.521Z,26.51
2023-02-07T17:35:05.042Z,26.54
2023-02-07T17:37:32.747Z,26.56
2023-02-07T17:40:01.427Z,26.66
2023-02-07T17:42:29.113Z,26.35
2023-02-07T17:45:03.542Z,26.40
2023-02-07T17:47:32.667Z,26.41
2023-02-07T17:50:00.386Z,26.45
2023-02-07T17:52:28.865Z,26.39
2023-02-07T17:55:01.054Z,26.26
2023-02-07T17:57:28.750Z,26.29
2023-02-07T17:59:56.481Z,26.43
2023-02-07T18:02:25.080Z,26.30
2023-02-07T18:04:55.077Z,26.47
2023-02-07T18:07:23.700Z,26.27
2023-02-07T18:09:51.517Z,26.00
2023-02-07T18:12:19.204Z,26.19
2023-02-07T18:14:47.861Z,26.13
2023-02-07T18:17:15.638Z,26.08
2023-02-07T18:19:43.352Z,26.16
2023-02-07T18:22:13.559Z,26.30
2023-02-07T18:24:41.189Z,26.11
2023-02-07T18:27:08.891Z,25.83
2023-02-07T18:29:37.424Z,25.85
2023-02-07T18:32:05.125Z,26.01
2023-02-07T18:34:33.733Z,25.97
2023-02-07T18:37:01.470Z,25.93
2023-02-07T18:39:33.488Z,25.74
2023-02-07T18:42:01.225Z,25.64
2023-02-07T18:44:35.609Z,25.78
2023-02-07T18:47:03.288Z,25.80
2023-02-07T18:49:31.390Z,25.71
2023-02-07T18:52:01.047Z,25.59
2023-02-07T18:54:30.189Z,25.73
2023-02-07T18:56:58.830Z,25.88
2023-02-07T18:59:26.605Z,25.73
2023-02-07T19:01:55.279Z,25.66
2023-02-07T19:04:24.748Z,25.70
2023-02-07T19:06:54.253Z,25.45
2023-02-07T19:09:23.319Z,25.28
2023-02-07T19:11:53.318Z,25.42
2023-02-07T19:14:23.559Z,25.20
2023-02-07T19:16:54.850Z,25.20
2023-02-07T19:19:22.788Z,25.17
2023-02-07T19:21:50.956Z,25.27
2023-02-07T19:24:20.636Z,25.52
2023-02-07T19:26:48.670Z,25.03
2023-02-07T19:29:18.001Z,25.26
2023-02-07T19:31:50.638Z,25.33
2023-02-07T19:34:18.413Z,24.97
2023-02-07T19:36:46.955Z,25.09
2023-02-07T19:39:14.751Z,25.37
2023-02-07T19:41:43.571Z,25.11
2023-02-07T19:44:11.473Z,25.30
2023-02-07T19:46:41.723Z,25.09
2023-02-07T19:49:11.691Z,25.26
2023-02-07T19:51:40.628Z,25.20
2023-02-07T19:54:08.310Z,25.25
2023-02-07T19:56:36.653Z,25.07
2023-02-07T19:59:09.623Z,25.47
2023-02-07T20:01:38.186Z,25.37
2023-02-07T20:04:13.696Z,25.30
2023-02-07T20:06:42.268Z,25.12
2023-02-07T20:09:11.032Z,25.37
2023-02-07T20:11:38.751Z,25.18
2023-02-07T20:14:08.929Z,25.34
2023-02-07T20:16:37.385Z,25.27
2023-02-07T20:19:07.863Z,25.17
2023-02-07T20:21:36.995Z,25.33
2023-02-07T20:24:06.773Z,25.21
2023-02-07T20:26:36.525Z,25.28
2023-02-07T20:29:09.759Z,25.39
2023-02-07T20:31:37.630Z,25.15
2023-02-07T20:34:07.794Z,25.21
2023-02-07T20:36:40.760Z,25.16
2023-02-07T20:39:11.616Z,25.16
2023-02-07T20:41:41.591Z,25.13
2023-02-07T20:44:12.851Z,25.00
2023-02-07T20:46:41.273Z,24.93
2023-02-07T20:49:15.232Z,24.86
2023-02-07T20:51:43.921Z,25.16
2023-02-07T20:54:14.786Z,25.05
2023-02-07T20:56:42.567Z,24.81
2023-02-07T20:59:12.829Z,24.95
2023-02-07T21:01:40.532Z,24.85
2023-02-07T21:04:13.691Z,25.00
2023-02-07T21:06:42.698Z,24.84
2023-02-07T21:09:11.734Z,25.03
2023-02-07T21:11:41.235Z,24.69
2023-02-07T21:14:10.256Z,24.83
2023-02-07T21:16:38.401Z,24.57
2023-02-07T21:19:10.704Z,24.75
2023-02-07T21:21:38.411Z,24.62
2023-02-07T21:24:08.568Z,24.48
2023-02-07T21:26:36.197Z,24.61
2023-02-07T21:29:05.340Z,24.80
2023-02-07T21:31:35.883Z,24.72
2023-02-07T21:34:03.809Z,24.74
2023-02-07T21:36:34.634Z,24.64
2023-02-07T21:39:04.628Z,24.78
2023-02-07T21:41:33.307Z,24.46
2023-02-07T21:44:01.120Z,24.46
2023-02-07T21:46:30.641Z,24.72
2023-02-07T21:49:01.695Z,24.66
2023-02-07T21:51:29.877Z,24.49
2023-02-07T21:53:58.105Z,24.44
2023-02-07T21:56:28.544Z,24.45
2023-02-07T21:58:56.604Z,24.26
2023-02-07T22:01:25.116Z,24.46
2023-02-07T22:03:55.766Z,24.53
2023-02-07T22:06:25.706Z,24.70
2023-02-07T22:08:53.809Z,24.49
2023-02-07T22:11:23.516Z,24.44
2023-02-07T22:13:56.771Z,24.60
2023-02-07T22:16:27.689Z,24.31
2023-02-07T22:18:57.184Z,24.39
2023-02-07T22:21:25.321Z,24.62
2023-02-07T22:23:54.036Z,24.39
2023-02-07T22:26:22.513Z,24.47
2023-02-07T22:28:50.940Z,24.56
2023-02-07T22:31:20.281Z,24.54
2023-02-07T22:33:48.880Z,24.35
2023-02-07T22:36:19.509Z,24.38
2023-02-07T22:38:47.882Z,24.50
2023-02-07T22:41:15.553Z,24.33
2023-02-07T22:43:43.972Z,24.52
2023-02-07T22:46:12.406Z,24.34
2023-02-07T22:48:40.111Z,24.36
2023-02-07T22:51:11.902Z,24.30
2023-02-07T22:53:41.048Z,24.31
2023-02-07T22:56:09.627Z,24.26
2023-02-07T22:58:37.399Z,24.39
2023-02-07T23:01:06.209Z,24.17
2023-02-07T23:03:34.692Z,24.26
2023-02-07T23:06:05.101Z,24.04
2023-02-07T23:08:33.774Z,24.02
2023-02-07T23:11:03.617Z,24.07
2023-02-07T23:13:31.345Z,23.89
2023-02-07T23:15:59.055Z,24.25
2023-02-07T23:18:28.593Z,24.08
2023-02-07T23:20:56.753Z,24.08
2023-02-07T23:23:26.343Z,23.97
2023-02-07T23:25:57.959Z,24.01
2023-02-07T23:28:29.245Z,24.22
2023-02-07T23:30:58.480Z,23.98
2023-02-07T23:33:27.666Z,24.13
2023-02-07T23:35:56.448Z,24.21
2023-02-07T23:38:25.667Z,24.12
2023-02-07T23:40:54.503Z,23.89
2023-02-07T23:43:23.384Z,24.18
2023-02-07T23:45:53.940Z,24.04
2023-02-07T23:48:21.668Z,24.04
2023-02-07T23:50:51.752Z,24.15
2023-02-07T23:53:20.622Z,23.90
2023-02-07T23:55:49.536Z,23.80
2023-02-07T23:58:18.449Z,23.91
